My Meet Scores
Aisha Carothers, Gym Kinetics Gymnastics - MyMeetScores.com
Top100 | Top Teams | Upcoming Meets | Completed Meets | Latest | Add Scores | Help| Support | Bookmark and Share

Aisha Carothers, Gym Kinetics Gymnastics
Personal Bests
LevelVault BarsBeamFloorAA
49.6259.500 9.6759.30037.725
59.3509.350 9.2759.30037.025
69.6509.100 9.4009.45037.150
Meet Scores
Date Meet Team Session Level Division Vault Bars Beam Floor AA
2017-03-23 2017 Illinois Level 6, 7 State Championship Gym Kinetics Gymnastics 11 6 Sr D 9.650 1 9.000 6T 9.050 15T 9.450 2T 37.150 2
2017-02-24 Kinetic Classic Gym Kinetics Gymnastics 9 6 All Ages 9.000 20T 9.100 24T 9.400 14T 9.300 19T 36.800 14T
2017-02-09 Hal's Harley-Davidson Invite Gym Kinetics Gymnastics S01 6 14+ yrs. 9.325 1T 8.600 4 9.200 3 9.250 6T 36.375 2
2017-01-13 St Jude Benefit Meet Gym Kinetics Gymnastics 2B 6 Sr B 8.950 9 9.025 3 9.275 5T 7.900 15 35.150 15
2016-12-16 2016 Aspire Classic Gym Kinetics Gymnastics 3 6 Older 9.250 2 9.050 8 8.850 10 9.375 4T 36.525 8
2016-04-22 2016 Illinois Level 5 And Xcel State Championships Gym Kinetics Gymnastics 2 5 Sr D 0.000 25 0.000 25 9.275 2 0.000 25 9.275 25
2016-02-20 Big Classic Gym Kinetics Gymnastics 11B 5 Child C 9.350 3 9.350 1 9.025 5 9.300 1 37.025 1
2016-01-22 2016 Honkytonk Classic Gym Kinetics Gymnastics 04 5 Sr 9.275 3 9.350 1 9.050 2 9.050 1T 36.725 1
2016-01-15 2016 Bravo Classic Gym Kinetics Gymnastics 1A 5 11+yrs 9.325 1 9.200 1 9.100 9T 9.200 4 36.825 1
2015-12-18 2015 Aspire Classic Gym Kinetics Gymnastics 12 5 Older 9.125 4 9.000 7T 9.250 2T 9.250 3T 36.625 1
2015-12-04 2015 Ultimate Wish Classic Gym Kinetics Gymnastics 9A 5 All 8.850 23 9.000 15 9.125 7 8.650 39 35.625 13
2015-03-19 2015 Illinois Level 4 State Championship Gym Kinetics Gymnastics All 4 Sr.D 9.600 2 9.500 3 9.400 4 9.225 12 37.725 3
2015-02-21 BIG Classic Gym Kinetics Gymnastics 5A 4 Junior B 8.800 2 9.275 1 9.175 4T 9.275 1 36.525 1
2015-01-23 King Arthur Invitational Gym Kinetics Gymnastics 5 4 SrB 9.050 3 8.950 5 8.800 8 9.050 5 35.850 3
2015-01-09 Legacy Elite Winter Classic 2015 Flipstar Gymnastics Academy 4B 4 Jr B 8.650 6 9.400 3 9.675 1 9.025 3 36.750 1
2014-03-13 2014 Illinois Level 4 State Meet Gym Kinetics Gymnastics 4 Sr.B 8.625 22 8.400 26 8.525 29 8.875 27 34.425 29
2014-02-15 BIG Dream Classic 2014 Gym Kinetics Gymnastics 3A 4 Junior B 8.900 7 7.400 13 8.200 14 8.650 11 33.150 13
2014-01-17 2014 Bravo Classic Gym Kinetics Gymnastics 8B 4 10+yrs 9.000 6T 8.400 18 8.325 10T 8.850 19 34.575 13
2013-12-19 2013 Hawaiian Pineapple Classic Gym Kinetics Gymnastics A6 4 11 8.450 7 8.250 6 8.200 10 8.700 6 33.600 8
2013-12-06 Ultimate Wish Classic Gym Kinetics Gymnastics A 4 Senior9 8.725 9 7.850 17 9.025 6 8.450 16 34.050 18
2013-04-04 2013 Illinois Level 3, 4 State Meet Gym Kinetics Gymnastics 4 Senior.A 9.625 4 9.350 9 9.375 4 9.300 15 37.650 4
2013-02-22 Midwest Open 2013 Gym Kinetics Gymnastics 5A 4 10 & up 9.400 7 9.450 4 8.600 18 9.100 3 36.550 10
2013-02-16 BIG Dream Classic 2013 Gym Kinetics Gymnastics 1A 4 Senior 9.625 3T 9.200 13 9.275 7 9.100 11 37.200 8T
2013-01-11 Circle Of Stars Gym Kinetics Gymnastics 4 10 9.000 8 8.425 8 8.300 10 8.575 9 34.300 6
2012-12-13 2012 Hawaiin Pineapple Classic Gym Kinetics Gymnastics 9 4 age 10 9.300 1 8.500 5 9.000 4 8.900 3 35.700 4
2012-11-30 Ultimate Wish Classic 2012 Gym Kinetics Gymnastics 4 L4 Sr A S9 8.900 3 8.300 8 8.750 6 9.300 2 35.250 5
2012-11-09 2012 Illinois Judges Cup Gym Kinetics Gymnastics 6B 4 10+ 8.675 12 9.200 3 8.900 6 8.950 9 35.725 6
2012-04-20 2012 Illinois Level 4 State Championships Gym Kinetics Gymnastics 5 4 Jr.A 9.375 7 8.750 25 9.375 4 8.875 17 36.375 17
2012-02-25 Midwest Open 2012 Flipstar Gymnastics Academy 6A 4 Lvl 4: 9 9.000 17 7.325 22 8.550 18 9.125 14 34.000 20
2012-02-10 IGI Chicago Style Gymnastics Gym Kinetics Gymnastics 231 4 9 Yr Olds 8.950 15T 8.400 15 8.075 19 8.700 13T 34.125 15
2012-01-28 2012 King Arthur Invitational Gym Kinetics Gymnastics 1 4 Sr.A 8.750 13 8.100 16 8.000 18 8.350 15 33.200 17
2012-01-06 2012 St. Jude Invite Flipstar Gymnastics Academy 4B 4 Junior A 8.575 6 8.175 13 7.800 12 7.950 13 32.500 15

www.lazysuits.com